sensor_id;sensor_type;location;lat;lon;timestamp;P1;durP1;ratioP1;P2;durP2;ratioP2
69621;SDS011;56841;55.964;37.674;2023-07-31T00:02:04;10.40;;;4.28;;
69621;SDS011;56841;55.964;37.674;2023-07-31T00:04:30;11.38;;;4.13;;
69621;SDS011;56841;55.964;37.674;2023-07-31T00:06:56;10.07;;;4.32;;
69621;SDS011;56841;55.964;37.674;2023-07-31T00:09:21;10.85;;;4.30;;
69621;SDS011;56841;55.964;37.674;2023-07-31T00:11:47;13.40;;;4.43;;
69621;SDS011;56841;55.964;37.674;2023-07-31T00:14:13;10.05;;;3.97;;
69621;SDS011;56841;55.964;37.674;2023-07-31T00:16:38;12.98;;;4.40;;
69621;SDS011;56841;55.964;37.674;2023-07-31T00:19:04;16.52;;;5.22;;
69621;SDS011;56841;55.964;37.674;2023-07-31T00:21:30;15.70;;;5.10;;
69621;SDS011;56841;55.964;37.674;2023-07-31T00:23:56;12.00;;;4.25;;
69621;SDS011;56841;55.964;37.674;2023-07-31T00:26:21;10.32;;;4.30;;
69621;SDS011;56841;55.964;37.674;2023-07-31T00:28:47;10.23;;;4.18;;
69621;SDS011;56841;55.964;37.674;2023-07-31T00:31:13;14.75;;;4.50;;
69621;SDS011;56841;55.964;37.674;2023-07-31T00:33:39;10.20;;;4.05;;
69621;SDS011;56841;55.964;37.674;2023-07-31T00:36:05;7.53;;;3.90;;
69621;SDS011;56841;55.964;37.674;2023-07-31T00:38:30;11.13;;;4.22;;
69621;SDS011;56841;55.964;37.674;2023-07-31T00:40:56;12.73;;;4.10;;
69621;SDS011;56841;55.964;37.674;2023-07-31T00:43:22;8.63;;;3.92;;
69621;SDS011;56841;55.964;37.674;2023-07-31T00:45:48;7.80;;;3.70;;
69621;SDS011;56841;55.964;37.674;2023-07-31T00:48:13;9.55;;;3.70;;
69621;SDS011;56841;55.964;37.674;2023-07-31T00:50:39;8.23;;;3.75;;
69621;SDS011;56841;55.964;37.674;2023-07-31T00:53:05;10.80;;;3.20;;
69621;SDS011;56841;55.964;37.674;2023-07-31T00:55:32;9.93;;;3.65;;
69621;SDS011;56841;55.964;37.674;2023-07-31T00:57:59;13.32;;;3.72;;
69621;SDS011;56841;55.964;37.674;2023-07-31T01:00:25;10.80;;;3.97;;
69621;SDS011;56841;55.964;37.674;2023-07-31T01:02:51;14.90;;;4.35;;
69621;SDS011;56841;55.964;37.674;2023-07-31T01:05:18;8.82;;;3.65;;
69621;SDS011;56841;55.964;37.674;2023-07-31T01:10:45;8.63;;;3.60;;
69621;SDS011;56841;55.964;37.674;2023-07-31T01:13:14;7.57;;;3.40;;
69621;SDS011;56841;55.964;37.674;2023-07-31T01:15:40;8.50;;;3.33;;
69621;SDS011;56841;55.964;37.674;2023-07-31T01:18:06;6.07;;;3.08;;
69621;SDS011;56841;55.964;37.674;2023-07-31T01:20:32;8.25;;;3.20;;
69621;SDS011;56841;55.964;37.674;2023-07-31T01:23:08;8.25;;;3.38;;
69621;SDS011;56841;55.964;37.674;2023-07-31T01:28:16;9.02;;;3.08;;
69621;SDS011;56841;55.964;37.674;2023-07-31T01:31:03;6.07;;;3.03;;
69621;SDS011;56841;55.964;37.674;2023-07-31T01:33:33;8.75;;;3.35;;
69621;SDS011;56841;55.964;37.674;2023-07-31T01:36:00;8.80;;;3.42;;
69621;SDS011;56841;55.964;37.674;2023-07-31T01:38:26;9.32;;;3.20;;
69621;SDS011;56841;55.964;37.674;2023-07-31T01:40:52;7.35;;;3.42;;
69621;SDS011;56841;55.964;37.674;2023-07-31T01:43:19;8.02;;;3.45;;
69621;SDS011;56841;55.964;37.674;2023-07-31T01:45:45;6.47;;;3.30;;
69621;SDS011;56841;55.964;37.674;2023-07-31T01:48:10;4.90;;;2.53;;
69621;SDS011;56841;55.964;37.674;2023-07-31T01:50:36;5.25;;;3.05;;
69621;SDS011;56841;55.964;37.674;2023-07-31T01:53:02;6.35;;;3.08;;
69621;SDS011;56841;55.964;37.674;2023-07-31T01:55:27;6.00;;;3.25;;
69621;SDS011;56841;55.964;37.674;2023-07-31T01:57:53;7.15;;;3.10;;
69621;SDS011;56841;55.964;37.674;2023-07-31T02:00:19;6.10;;;2.95;;
69621;SDS011;56841;55.964;37.674;2023-07-31T02:02:44;7.30;;;3.10;;
69621;SDS011;56841;55.964;37.674;2023-07-31T02:05:10;6.40;;;2.92;;
69621;SDS011;56841;55.964;37.674;2023-07-31T02:07:37;5.65;;;3.00;;
69621;SDS011;56841;55.964;37.674;2023-07-31T02:10:02;6.90;;;2.95;;
69621;SDS011;56841;55.964;37.674;2023-07-31T02:12:32;7.50;;;3.10;;
69621;SDS011;56841;55.964;37.674;2023-07-31T02:15:00;9.02;;;3.15;;
69621;SDS011;56841;55.964;37.674;2023-07-31T02:17:27;7.65;;;3.22;;
69621;SDS011;56841;55.964;37.674;2023-07-31T02:19:54;7.88;;;3.03;;
69621;SDS011;56841;55.964;37.674;2023-07-31T02:22:19;7.30;;;2.83;;
69621;SDS011;56841;55.964;37.674;2023-07-31T02:24:45;7.72;;;2.90;;
69621;SDS011;56841;55.964;37.674;2023-07-31T02:27:11;6.90;;;3.00;;
69621;SDS011;56841;55.964;37.674;2023-07-31T02:29:37;5.57;;;2.80;;
69621;SDS011;56841;55.964;37.674;2023-07-31T02:32:02;7.80;;;2.63;;
69621;SDS011;56841;55.964;37.674;2023-07-31T02:34:29;7.68;;;2.90;;
69621;SDS011;56841;55.964;37.674;2023-07-31T02:36:54;6.03;;;2.65;;
69621;SDS011;56841;55.964;37.674;2023-07-31T02:39:20;9.52;;;3.90;;
69621;SDS011;56841;55.964;37.674;2023-07-31T02:41:46;5.25;;;2.83;;
69621;SDS011;56841;55.964;37.674;2023-07-31T02:44:12;6.82;;;3.00;;
69621;SDS011;56841;55.964;37.674;2023-07-31T02:46:39;6.10;;;2.72;;
69621;SDS011;56841;55.964;37.674;2023-07-31T02:49:05;5.43;;;2.88;;
69621;SDS011;56841;55.964;37.674;2023-07-31T02:51:31;9.05;;;2.97;;
69621;SDS011;56841;55.964;37.674;2023-07-31T02:53:57;7.97;;;2.80;;
69621;SDS011;56841;55.964;37.674;2023-07-31T02:56:22;7.85;;;2.60;;
69621;SDS011;56841;55.964;37.674;2023-07-31T02:58:48;8.48;;;2.83;;
69621;SDS011;56841;55.964;37.674;2023-07-31T03:01:14;6.78;;;3.00;;
69621;SDS011;56841;55.964;37.674;2023-07-31T03:03:40;6.05;;;2.97;;
69621;SDS011;56841;55.964;37.674;2023-07-31T03:06:06;9.95;;;3.03;;
69621;SDS011;56841;55.964;37.674;2023-07-31T03:08:32;6.03;;;2.80;;
69621;SDS011;56841;55.964;37.674;2023-07-31T03:10:58;7.88;;;2.80;;
69621;SDS011;56841;55.964;37.674;2023-07-31T03:13:23;9.23;;;2.70;;
69621;SDS011;56841;55.964;37.674;2023-07-31T03:15:50;7.25;;;2.83;;
69621;SDS011;56841;55.964;37.674;2023-07-31T03:18:16;7.20;;;2.70;;
69621;SDS011;56841;55.964;37.674;2023-07-31T03:20:42;5.20;;;2.38;;
69621;SDS011;56841;55.964;37.674;2023-07-31T03:23:09;6.63;;;2.30;;
69621;SDS011;56841;55.964;37.674;2023-07-31T03:25:35;6.03;;;2.40;;
69621;SDS011;56841;55.964;37.674;2023-07-31T03:28:01;5.25;;;2.40;;
69621;SDS011;56841;55.964;37.674;2023-07-31T03:30:27;6.95;;;2.30;;
69621;SDS011;56841;55.964;37.674;2023-07-31T03:32:52;6.60;;;2.20;;
69621;SDS011;56841;55.964;37.674;2023-07-31T03:35:18;4.97;;;2.22;;
69621;SDS011;56841;55.964;37.674;2023-07-31T03:37:44;4.55;;;2.30;;
69621;SDS011;56841;55.964;37.674;2023-07-31T03:40:10;9.23;;;2.50;;
69621;SDS011;56841;55.964;37.674;2023-07-31T03:42:36;4.68;;;2.22;;
69621;SDS011;56841;55.964;37.674;2023-07-31T03:45:01;5.18;;;2.70;;
69621;SDS011;56841;55.964;37.674;2023-07-31T03:47:31;5.80;;;2.22;;
69621;SDS011;56841;55.964;37.674;2023-07-31T03:49:56;4.93;;;2.63;;
69621;SDS011;56841;55.964;37.674;2023-07-31T03:52:22;6.20;;;2.17;;
69621;SDS011;56841;55.964;37.674;2023-07-31T03:54:48;6.68;;;2.38;;
69621;SDS011;56841;55.964;37.674;2023-07-31T03:57:13;5.25;;;2.33;;
69621;SDS011;56841;55.964;37.674;2023-07-31T03:59:39;6.15;;;2.67;;
69621;SDS011;56841;55.964;37.674;2023-07-31T04:02:05;6.57;;;2.30;;
69621;SDS011;56841;55.964;37.674;2023-07-31T04:04:31;6.30;;;1.60;;
69621;SDS011;56841;55.964;37.674;2023-07-31T04:06:56;4.75;;;1.88;;
69621;SDS011;56841;55.964;37.674;2023-07-31T04:09:22;4.05;;;2.22;;
69621;SDS011;56841;55.964;37.674;2023-07-31T04:11:48;8.85;;;2.22;;
69621;SDS011;56841;55.964;37.674;2023-07-31T04:14:13;5.68;;;2.28;;
69621;SDS011;56841;55.964;37.674;2023-07-31T04:16:39;4.78;;;2.53;;
69621;SDS011;56841;55.964;37.674;2023-07-31T04:19:04;5.40;;;2.13;;
69621;SDS011;56841;55.964;37.674;2023-07-31T04:21:30;6.03;;;2.33;;
69621;SDS011;56841;55.964;37.674;2023-07-31T04:23:56;6.22;;;2.35;;
69621;SDS011;56841;55.964;37.674;2023-07-31T04:26:22;6.15;;;2.33;;
69621;SDS011;56841;55.964;37.674;2023-07-31T04:28:47;8.77;;;2.10;;
69621;SDS011;56841;55.964;37.674;2023-07-31T04:31:13;3.67;;;2.17;;
69621;SDS011;56841;55.964;37.674;2023-07-31T04:33:39;7.63;;;2.28;;
69621;SDS011;56841;55.964;37.674;2023-07-31T04:36:04;6.47;;;2.10;;
69621;SDS011;56841;55.964;37.674;2023-07-31T04:38:30;4.57;;;2.20;;
69621;SDS011;56841;55.964;37.674;2023-07-31T04:40:56;5.90;;;1.90;;
69621;SDS011;56841;55.964;37.674;2023-07-31T04:43:22;3.97;;;1.83;;
69621;SDS011;56841;55.964;37.674;2023-07-31T04:45:47;5.93;;;2.00;;
69621;SDS011;56841;55.964;37.674;2023-07-31T04:48:14;4.68;;;1.70;;
69621;SDS011;56841;55.964;37.674;2023-07-31T04:50:40;3.70;;;1.65;;
69621;SDS011;56841;55.964;37.674;2023-07-31T04:53:05;6.10;;;2.33;;
69621;SDS011;56841;55.964;37.674;2023-07-31T04:55:31;4.60;;;1.92;;
69621;SDS011;56841;55.964;37.674;2023-07-31T04:57:58;5.00;;;2.13;;
69621;SDS011;56841;55.964;37.674;2023-07-31T05:00:24;3.50;;;2.10;;
69621;SDS011;56841;55.964;37.674;2023-07-31T05:02:50;3.15;;;1.73;;
69621;SDS011;56841;55.964;37.674;2023-07-31T05:05:16;4.28;;;1.98;;
69621;SDS011;56841;55.964;37.674;2023-07-31T05:07:42;4.95;;;2.33;;
69621;SDS011;56841;55.964;37.674;2023-07-31T05:10:08;5.53;;;2.05;;
69621;SDS011;56841;55.964;37.674;2023-07-31T05:12:34;4.88;;;2.05;;
69621;SDS011;56841;55.964;37.674;2023-07-31T05:14:59;7.32;;;2.00;;
69621;SDS011;56841;55.964;37.674;2023-07-31T05:17:25;4.18;;;1.90;;
69621;SDS011;56841;55.964;37.674;2023-07-31T05:19:51;3.88;;;1.60;;
69621;SDS011;56841;55.964;37.674;2023-07-31T05:22:16;3.05;;;1.42;;
69621;SDS011;56841;55.964;37.674;2023-07-31T05:24:42;3.28;;;1.80;;
69621;SDS011;56841;55.964;37.674;2023-07-31T05:27:08;3.88;;;1.80;;
69621;SDS011;56841;55.964;37.674;2023-07-31T05:29:35;6.65;;;2.03;;
69621;SDS011;56841;55.964;37.674;2023-07-31T05:32:01;4.20;;;2.00;;
69621;SDS011;56841;55.964;37.674;2023-07-31T05:34:26;4.63;;;1.80;;
69621;SDS011;56841;55.964;37.674;2023-07-31T05:36:53;7.07;;;1.70;;
69621;SDS011;56841;55.964;37.674;2023-07-31T05:39:18;5.28;;;1.80;;
69621;SDS011;56841;55.964;37.674;2023-07-31T05:41:45;5.72;;;1.60;;
69621;SDS011;56841;55.964;37.674;2023-07-31T05:44:11;3.33;;;1.60;;
69621;SDS011;56841;55.964;37.674;2023-07-31T05:46:36;4.05;;;1.70;;
69621;SDS011;56841;55.964;37.674;2023-07-31T05:49:02;3.40;;;1.20;;
69621;SDS011;56841;55.964;37.674;2023-07-31T05:51:28;6.30;;;1.60;;
69621;SDS011;56841;55.964;37.674;2023-07-31T05:53:53;5.00;;;1.70;;
69621;SDS011;56841;55.964;37.674;2023-07-31T05:56:19;4.82;;;1.40;;
69621;SDS011;56841;55.964;37.674;2023-07-31T05:58:45;3.70;;;2.10;;
69621;SDS011;56841;55.964;37.674;2023-07-31T06:01:11;3.47;;;1.55;;
69621;SDS011;56841;55.964;37.674;2023-07-31T06:03:36;5.45;;;2.10;;
69621;SDS011;56841;55.964;37.674;2023-07-31T06:06:02;4.93;;;1.50;;
69621;SDS011;56841;55.964;37.674;2023-07-31T06:08:28;3.92;;;1.83;;
69621;SDS011;56841;55.964;37.674;2023-07-31T06:10:53;4.43;;;1.70;;
69621;SDS011;56841;55.964;37.674;2023-07-31T06:13:19;4.28;;;1.77;;
69621;SDS011;56841;55.964;37.674;2023-07-31T06:15:45;5.15;;;1.80;;
69621;SDS011;56841;55.964;37.674;2023-07-31T06:18:11;5.00;;;1.70;;
69621;SDS011;56841;55.964;37.674;2023-07-31T06:20:37;3.90;;;1.83;;
69621;SDS011;56841;55.964;37.674;2023-07-31T06:23:04;3.15;;;1.48;;
69621;SDS011;56841;55.964;37.674;2023-07-31T06:25:30;3.20;;;1.60;;
69621;SDS011;56841;55.964;37.674;2023-07-31T06:27:56;5.05;;;1.60;;
69621;SDS011;56841;55.964;37.674;2023-07-31T06:30:21;5.35;;;1.55;;
69621;SDS011;56841;55.964;37.674;2023-07-31T06:32:47;2.65;;;1.30;;
69621;SDS011;56841;55.964;37.674;2023-07-31T06:35:13;3.47;;;1.40;;
69621;SDS011;56841;55.964;37.674;2023-07-31T06:37:38;4.85;;;1.77;;
69621;SDS011;56841;55.964;37.674;2023-07-31T06:40:06;2.95;;;1.45;;
69621;SDS011;56841;55.964;37.674;2023-07-31T06:42:34;4.22;;;1.17;;
69621;SDS011;56841;55.964;37.674;2023-07-31T06:45:01;2.30;;;1.02;;
69621;SDS011;56841;55.964;37.674;2023-07-31T06:47:32;4.07;;;1.33;;
69621;SDS011;56841;55.964;37.674;2023-07-31T06:49:58;2.60;;;1.23;;
69621;SDS011;56841;55.964;37.674;2023-07-31T06:52:23;2.28;;;1.13;;
69621;SDS011;56841;55.964;37.674;2023-07-31T06:57:49;4.07;;;1.38;;
69621;SDS011;56841;55.964;37.674;2023-07-31T07:00:16;2.72;;;1.35;;
69621;SDS011;56841;55.964;37.674;2023-07-31T07:02:42;3.15;;;1.40;;
69621;SDS011;56841;55.964;37.674;2023-07-31T07:05:08;2.92;;;1.50;;
69621;SDS011;56841;55.964;37.674;2023-07-31T07:07:35;4.85;;;1.48;;
69621;SDS011;56841;55.964;37.674;2023-07-31T07:10:01;5.43;;;1.30;;
69621;SDS011;56841;55.964;37.674;2023-07-31T07:12:31;3.88;;;1.30;;
69621;SDS011;56841;55.964;37.674;2023-07-31T07:14:58;4.07;;;1.30;;
69621;SDS011;56841;55.964;37.674;2023-07-31T07:17:24;3.45;;;1.30;;
69621;SDS011;56841;55.964;37.674;2023-07-31T07:19:50;3.08;;;1.35;;
69621;SDS011;56841;55.964;37.674;2023-07-31T07:22:16;2.80;;;1.10;;
69621;SDS011;56841;55.964;37.674;2023-07-31T07:24:42;4.22;;;1.30;;
69621;SDS011;56841;55.964;37.674;2023-07-31T07:27:08;2.40;;;1.02;;
69621;SDS011;56841;55.964;37.674;2023-07-31T07:29:34;2.38;;;1.10;;
69621;SDS011;56841;55.964;37.674;2023-07-31T07:32:00;1.95;;;1.02;;
69621;SDS011;56841;55.964;37.674;2023-07-31T07:34:26;2.88;;;1.17;;
69621;SDS011;56841;55.964;37.674;2023-07-31T07:36:54;4.43;;;1.13;;
69621;SDS011;56841;55.964;37.674;2023-07-31T07:39:20;3.28;;;1.17;;
69621;SDS011;56841;55.964;37.674;2023-07-31T07:41:46;1.75;;;0.88;;
69621;SDS011;56841;55.964;37.674;2023-07-31T07:44:13;2.17;;;1.10;;
69621;SDS011;56841;55.964;37.674;2023-07-31T07:46:39;1.67;;;0.90;;
69621;SDS011;56841;55.964;37.674;2023-07-31T07:49:05;2.42;;;1.17;;
69621;SDS011;56841;55.964;37.674;2023-07-31T07:51:31;2.47;;;1.10;;
69621;SDS011;56841;55.964;37.674;2023-07-31T07:53:57;2.80;;;1.02;;
69621;SDS011;56841;55.964;37.674;2023-07-31T07:56:25;5.55;;;1.20;;
69621;SDS011;56841;55.964;37.674;2023-07-31T07:58:52;2.40;;;1.10;;
69621;SDS011;56841;55.964;37.674;2023-07-31T08:01:18;4.50;;;1.10;;
69621;SDS011;56841;55.964;37.674;2023-07-31T08:03:43;2.88;;;1.33;;
69621;SDS011;56841;55.964;37.674;2023-07-31T08:06:09;2.80;;;1.10;;
69621;SDS011;56841;55.964;37.674;2023-07-31T08:08:35;1.40;;;0.82;;
69621;SDS011;56841;55.964;37.674;2023-07-31T08:11:02;2.47;;;1.20;;
69621;SDS011;56841;55.964;37.674;2023-07-31T08:13:28;5.53;;;1.42;;
69621;SDS011;56841;55.964;37.674;2023-07-31T08:15:53;3.17;;;1.65;;
69621;SDS011;56841;55.964;37.674;2023-07-31T08:18:19;2.67;;;1.58;;
69621;SDS011;56841;55.964;37.674;2023-07-31T08:20:46;2.90;;;1.13;;
69621;SDS011;56841;55.964;37.674;2023-07-31T08:23:13;1.70;;;0.90;;
69621;SDS011;56841;55.964;37.674;2023-07-31T08:25:39;1.90;;;1.02;;
69621;SDS011;56841;55.964;37.674;2023-07-31T08:28:05;2.85;;;1.25;;
69621;SDS011;56841;55.964;37.674;2023-07-31T08:30:31;3.97;;;1.55;;
69621;SDS011;56841;55.964;37.674;2023-07-31T08:32:58;3.72;;;1.13;;
69621;SDS011;56841;55.964;37.674;2023-07-31T08:35:25;4.85;;;1.40;;
69621;SDS011;56841;55.964;37.674;2023-07-31T08:37:51;2.35;;;1.20;;
69621;SDS011;56841;55.964;37.674;2023-07-31T08:40:17;2.75;;;1.58;;
69621;SDS011;56841;55.964;37.674;2023-07-31T08:42:44;2.53;;;1.38;;
69621;SDS011;56841;55.964;37.674;2023-07-31T08:45:17;3.28;;;1.75;;
69621;SDS011;56841;55.964;37.674;2023-07-31T08:47:45;4.53;;;1.63;;
69621;SDS011;56841;55.964;37.674;2023-07-31T08:50:12;2.50;;;1.30;;
69621;SDS011;56841;55.964;37.674;2023-07-31T08:52:39;3.10;;;1.25;;
69621;SDS011;56841;55.964;37.674;2023-07-31T08:55:05;2.33;;;1.25;;
69621;SDS011;56841;55.964;37.674;2023-07-31T08:57:35;2.17;;;1.08;;
69621;SDS011;56841;55.964;37.674;2023-07-31T09:00:04;2.15;;;1.30;;
69621;SDS011;56841;55.964;37.674;2023-07-31T09:05:28;2.75;;;1.10;;
69621;SDS011;56841;55.964;37.674;2023-07-31T09:07:56;2.85;;;0.98;;
69621;SDS011;56841;55.964;37.674;2023-07-31T09:10:23;2.63;;;1.40;;
69621;SDS011;56841;55.964;37.674;2023-07-31T09:12:50;3.38;;;1.13;;
69621;SDS011;56841;55.964;37.674;2023-07-31T09:15:17;2.88;;;1.10;;
69621;SDS011;56841;55.964;37.674;2023-07-31T09:17:43;3.22;;;1.70;;
69621;SDS011;56841;55.964;37.674;2023-07-31T09:20:19;3.35;;;1.30;;
69621;SDS011;56841;55.964;37.674;2023-07-31T09:22:47;2.38;;;1.08;;
69621;SDS011;56841;55.964;37.674;2023-07-31T09:27:49;3.90;;;1.50;;
69621;SDS011;56841;55.964;37.674;2023-07-31T09:30:17;2.58;;;1.55;;
69621;SDS011;56841;55.964;37.674;2023-07-31T09:32:44;2.67;;;1.38;;
69621;SDS011;56841;55.964;37.674;2023-07-31T09:35:21;2.67;;;1.30;;
69621;SDS011;56841;55.964;37.674;2023-07-31T09:37:49;4.47;;;1.50;;
69621;SDS011;56841;55.964;37.674;2023-07-31T09:42:59;3.58;;;2.10;;
69621;SDS011;56841;55.964;37.674;2023-07-31T09:45:26;4.93;;;2.83;;
69621;SDS011;56841;55.964;37.674;2023-07-31T09:47:53;6.35;;;2.15;;
69621;SDS011;56841;55.964;37.674;2023-07-31T09:50:21;4.47;;;1.58;;
69621;SDS011;56841;55.964;37.674;2023-07-31T09:52:50;3.30;;;1.95;;
69621;SDS011;56841;55.964;37.674;2023-07-31T09:55:17;3.45;;;1.73;;
69621;SDS011;56841;55.964;37.674;2023-07-31T09:57:46;8.98;;;5.07;;
69621;SDS011;56841;55.964;37.674;2023-07-31T10:00:14;4.80;;;2.78;;
69621;SDS011;56841;55.964;37.674;2023-07-31T10:02:44;5.18;;;2.10;;
69621;SDS011;56841;55.964;37.674;2023-07-31T10:05:12;5.40;;;2.72;;
69621;SDS011;56841;55.964;37.674;2023-07-31T10:07:45;4.40;;;1.90;;
69621;SDS011;56841;55.964;37.674;2023-07-31T10:10:19;3.95;;;1.40;;
69621;SDS011;56841;55.964;37.674;2023-07-31T10:12:47;3.47;;;1.40;;
69621;SDS011;56841;55.964;37.674;2023-07-31T10:15:14;3.47;;;1.40;;
69621;SDS011;56841;55.964;37.674;2023-07-31T10:17:41;2.20;;;1.10;;
69621;SDS011;56841;55.964;37.674;2023-07-31T10:20:08;3.20;;;1.73;;
69621;SDS011;56841;55.964;37.674;2023-07-31T10:22:35;7.60;;;3.50;;
69621;SDS011;56841;55.964;37.674;2023-07-31T10:25:02;10.60;;;5.00;;
69621;SDS011;56841;55.964;37.674;2023-07-31T10:27:31;9.38;;;5.35;;
69621;SDS011;56841;55.964;37.674;2023-07-31T10:29:57;3.67;;;1.73;;
69621;SDS011;56841;55.964;37.674;2023-07-31T10:32:24;3.45;;;1.67;;
69621;SDS011;56841;55.964;37.674;2023-07-31T10:34:50;2.60;;;1.17;;
69621;SDS011;56841;55.964;37.674;2023-07-31T10:40:10;5.57;;;2.22;;
69621;SDS011;56841;55.964;37.674;2023-07-31T10:42:50;5.68;;;2.20;;
69621;SDS011;56841;55.964;37.674;2023-07-31T10:45:35;3.00;;;1.60;;
69621;SDS011;56841;55.964;37.674;2023-07-31T10:48:14;3.75;;;1.42;;
69621;SDS011;56841;55.964;37.674;2023-07-31T10:50:48;3.55;;;1.20;;
69621;SDS011;56841;55.964;37.674;2023-07-31T10:53:30;2.28;;;1.27;;
69621;SDS011;56841;55.964;37.674;2023-07-31T10:56:01;2.85;;;1.48;;
69621;SDS011;56841;55.964;37.674;2023-07-31T10:58:29;3.63;;;1.42;;
69621;SDS011;56841;55.964;37.674;2023-07-31T11:01:00;3.55;;;1.50;;
69621;SDS011;56841;55.964;37.674;2023-07-31T11:03:41;5.95;;;1.70;;
69621;SDS011;56841;55.964;37.674;2023-07-31T11:08:44;4.47;;;1.52;;
69621;SDS011;56841;55.964;37.674;2023-07-31T11:11:16;5.35;;;1.80;;
69621;SDS011;56841;55.964;37.674;2023-07-31T11:13:47;4.47;;;1.58;;
69621;SDS011;56841;55.964;37.674;2023-07-31T11:16:15;4.55;;;1.67;;
69621;SDS011;56841;55.964;37.674;2023-07-31T11:18:42;4.18;;;1.52;;
69621;SDS011;56841;55.964;37.674;2023-07-31T11:21:20;3.38;;;1.55;;
69621;SDS011;56841;55.964;37.674;2023-07-31T11:23:48;4.30;;;1.80;;
69621;SDS011;56841;55.964;37.674;2023-07-31T11:26:18;2.75;;;1.48;;
69621;SDS011;56841;55.964;37.674;2023-07-31T11:28:48;3.90;;;1.70;;
69621;SDS011;56841;55.964;37.674;2023-07-31T11:31:14;2.95;;;1.67;;
69621;SDS011;56841;55.964;37.674;2023-07-31T11:33:41;2.70;;;1.50;;
69621;SDS011;56841;55.964;37.674;2023-07-31T11:36:15;4.90;;;1.75;;
69621;SDS011;56841;55.964;37.674;2023-07-31T11:38:45;8.63;;;2.20;;
69621;SDS011;56841;55.964;37.674;2023-07-31T11:41:13;4.07;;;1.85;;
69621;SDS011;56841;55.964;37.674;2023-07-31T11:43:39;4.38;;;1.75;;
69621;SDS011;56841;55.964;37.674;2023-07-31T11:46:05;6.45;;;2.08;;
69621;SDS011;56841;55.964;37.674;2023-07-31T11:48:35;6.40;;;2.08;;
69621;SDS011;56841;55.964;37.674;2023-07-31T11:51:06;3.53;;;1.63;;
69621;SDS011;56841;55.964;37.674;2023-07-31T11:56:17;6.10;;;2.00;;
69621;SDS011;56841;55.964;37.674;2023-07-31T11:58:45;6.00;;;2.20;;
69621;SDS011;56841;55.964;37.674;2023-07-31T12:01:15;2.80;;;1.65;;
69621;SDS011;56841;55.964;37.674;2023-07-31T12:03:45;4.63;;;1.73;;
69621;SDS011;56841;55.964;37.674;2023-07-31T12:06:12;3.13;;;1.58;;
69621;SDS011;56841;55.964;37.674;2023-07-31T12:08:37;3.88;;;1.75;;
69621;SDS011;56841;55.964;37.674;2023-07-31T12:11:04;2.55;;;1.20;;
69621;SDS011;56841;55.964;37.674;2023-07-31T12:13:31;3.42;;;2.08;;
69621;SDS011;56841;55.964;37.674;2023-07-31T12:15:59;4.85;;;1.42;;
69621;SDS011;56841;55.964;37.674;2023-07-31T12:18:29;5.05;;;2.38;;
69621;SDS011;56841;55.964;37.674;2023-07-31T12:20:59;4.25;;;1.92;;
69621;SDS011;56841;55.964;37.674;2023-07-31T12:23:27;2.42;;;1.30;;
69621;SDS011;56841;55.964;37.674;2023-07-31T12:26:04;5.07;;;1.92;;
69621;SDS011;56841;55.964;37.674;2023-07-31T12:28:39;2.85;;;1.60;;
69621;SDS011;56841;55.964;37.674;2023-07-31T12:31:07;3.58;;;1.70;;
69621;SDS011;56841;55.964;37.674;2023-07-31T12:33:35;2.75;;;1.67;;
69621;SDS011;56841;55.964;37.674;2023-07-31T12:36:03;3.05;;;1.80;;
69621;SDS011;56841;55.964;37.674;2023-07-31T12:38:30;4.93;;;2.17;;
69621;SDS011;56841;55.964;37.674;2023-07-31T12:40:56;4.05;;;1.70;;
69621;SDS011;56841;55.964;37.674;2023-07-31T12:43:22;5.30;;;2.10;;
69621;SDS011;56841;55.964;37.674;2023-07-31T12:45:48;3.60;;;1.52;;
69621;SDS011;56841;55.964;37.674;2023-07-31T12:48:14;6.25;;;2.33;;
69621;SDS011;56841;55.964;37.674;2023-07-31T12:50:40;4.05;;;1.63;;
69621;SDS011;56841;55.964;37.674;2023-07-31T12:53:06;5.15;;;1.77;;
69621;SDS011;56841;55.964;37.674;2023-07-31T12:55:32;2.70;;;1.65;;
69621;SDS011;56841;55.964;37.674;2023-07-31T13:00:28;4.07;;;2.10;;
69621;SDS011;56841;55.964;37.674;2023-07-31T13:02:55;5.32;;;1.90;;
69621;SDS011;56841;55.964;37.674;2023-07-31T13:05:20;4.35;;;1.90;;
69621;SDS011;56841;55.964;37.674;2023-07-31T13:07:47;4.82;;;2.03;;
69621;SDS011;56841;55.964;37.674;2023-07-31T13:10:13;4.10;;;2.00;;
69621;SDS011;56841;55.964;37.674;2023-07-31T13:12:39;6.25;;;2.78;;
69621;SDS011;56841;55.964;37.674;2023-07-31T13:15:05;6.20;;;2.40;;
69621;SDS011;56841;55.964;37.674;2023-07-31T13:17:32;4.30;;;2.10;;
69621;SDS011;56841;55.964;37.674;2023-07-31T13:19:58;4.20;;;1.88;;
69621;SDS011;56841;55.964;37.674;2023-07-31T13:22:24;5.28;;;1.70;;
69621;SDS011;56841;55.964;37.674;2023-07-31T13:24:50;3.75;;;1.63;;
69621;SDS011;56841;55.964;37.674;2023-07-31T13:27:16;3.58;;;1.95;;
69621;SDS011;56841;55.964;37.674;2023-07-31T13:29:44;5.03;;;2.08;;
69621;SDS011;56841;55.964;37.674;2023-07-31T13:32:11;4.18;;;2.15;;
69621;SDS011;56841;55.964;37.674;2023-07-31T13:34:37;5.88;;;2.83;;
69621;SDS011;56841;55.964;37.674;2023-07-31T13:37:03;4.03;;;1.75;;
69621;SDS011;56841;55.964;37.674;2023-07-31T13:39:31;3.22;;;1.95;;
69621;SDS011;56841;55.964;37.674;2023-07-31T13:41:58;3.50;;;1.60;;
69621;SDS011;56841;55.964;37.674;2023-07-31T13:44:24;2.80;;;1.90;;
69621;SDS011;56841;55.964;37.674;2023-07-31T13:46:50;4.53;;;1.90;;
69621;SDS011;56841;55.964;37.674;2023-07-31T13:49:16;5.35;;;1.75;;
69621;SDS011;56841;55.964;37.674;2023-07-31T13:51:42;4.85;;;2.00;;
69621;SDS011;56841;55.964;37.674;2023-07-31T13:54:08;3.08;;;1.77;;
69621;SDS011;56841;55.964;37.674;2023-07-31T13:56:37;5.28;;;2.33;;
69621;SDS011;56841;55.964;37.674;2023-07-31T13:59:04;3.22;;;1.92;;
69621;SDS011;56841;55.964;37.674;2023-07-31T14:01:30;4.50;;;1.75;;
69621;SDS011;56841;55.964;37.674;2023-07-31T14:03:57;3.28;;;1.67;;
69621;SDS011;56841;55.964;37.674;2023-07-31T14:06:23;6.65;;;1.70;;
69621;SDS011;56841;55.964;37.674;2023-07-31T14:08:49;4.75;;;2.00;;
69621;SDS011;56841;55.964;37.674;2023-07-31T14:11:15;3.95;;;1.92;;
69621;SDS011;56841;55.964;37.674;2023-07-31T14:13:41;6.15;;;2.00;;
69621;SDS011;56841;55.964;37.674;2023-07-31T14:16:07;3.33;;;1.73;;
69621;SDS011;56841;55.964;37.674;2023-07-31T14:18:32;4.05;;;2.08;;
69621;SDS011;56841;55.964;37.674;2023-07-31T14:20:58;5.95;;;2.20;;
69621;SDS011;56841;55.964;37.674;2023-07-31T14:23:24;5.50;;;2.50;;
69621;SDS011;56841;55.964;37.674;2023-07-31T14:25:50;5.65;;;2.80;;
69621;SDS011;56841;55.964;37.674;2023-07-31T14:28:16;6.30;;;2.58;;
69621;SDS011;56841;55.964;37.674;2023-07-31T14:30:42;4.25;;;2.28;;
69621;SDS011;56841;55.964;37.674;2023-07-31T14:33:08;3.75;;;2.13;;
69621;SDS011;56841;55.964;37.674;2023-07-31T14:35:34;6.20;;;3.55;;
69621;SDS011;56841;55.964;37.674;2023-07-31T14:38:01;4.15;;;2.28;;
69621;SDS011;56841;55.964;37.674;2023-07-31T14:40:27;4.97;;;2.20;;
69621;SDS011;56841;55.964;37.674;2023-07-31T14:42:53;3.90;;;2.10;;
69621;SDS011;56841;55.964;37.674;2023-07-31T14:45:19;3.72;;;2.30;;
69621;SDS011;56841;55.964;37.674;2023-07-31T14:47:45;4.13;;;2.13;;
69621;SDS011;56841;55.964;37.674;2023-07-31T14:50:11;6.05;;;2.60;;
69621;SDS011;56841;55.964;37.674;2023-07-31T14:52:37;6.88;;;2.30;;
69621;SDS011;56841;55.964;37.674;2023-07-31T14:55:03;4.00;;;2.47;;
69621;SDS011;56841;55.964;37.674;2023-07-31T14:57:29;4.28;;;2.03;;
69621;SDS011;56841;55.964;37.674;2023-07-31T14:59:55;3.55;;;1.83;;